createdAt,value
2022-08-03T00:02:19.607Z,57.00
2022-08-03T00:04:46.713Z,56.92
2022-08-03T00:07:14.139Z,56.76
2022-08-03T00:09:41.142Z,56.96
2022-08-03T00:12:08.823Z,56.66
2022-08-03T00:14:36.012Z,56.59
2022-08-03T00:17:03.484Z,56.79
2022-08-03T00:19:30.397Z,56.88
2022-08-03T00:21:57.747Z,56.71
2022-08-03T00:24:24.729Z,56.94
2022-08-03T00:26:52.130Z,57.07
2022-08-03T00:29:19.356Z,57.13
2022-08-03T00:31:59.164Z,57.43
2022-08-03T00:34:36.670Z,57.12
2022-08-03T00:37:14.706Z,57.50
2022-08-03T00:39:52.667Z,57.52
2022-08-03T00:42:59.852Z,57.42
2022-08-03T00:45:33.107Z,57.72
2022-08-03T00:48:01.590Z,57.89
2022-08-03T00:50:30.302Z,57.95
2022-08-03T00:52:59.730Z,57.70
2022-08-03T00:55:26.777Z,57.97
2022-08-03T00:57:54.547Z,58.11
2022-08-03T01:00:25.010Z,58.08
2022-08-03T01:02:53.481Z,58.03
2022-08-03T01:05:23.289Z,58.48
2022-08-03T01:07:50.150Z,58.51
2022-08-03T01:10:47.919Z,58.69
2022-08-03T01:14:03.716Z,58.91
2022-08-03T01:16:20.383Z,59.23
2022-08-03T01:18:59.956Z,59.26
2022-08-03T01:21:52.760Z,59.36
2022-08-03T01:24:32.010Z,59.45
2022-08-03T01:27:05.485Z,59.55
2022-08-03T01:29:58.605Z,59.67
2022-08-03T01:32:59.695Z,59.95
2022-08-03T01:35:54.875Z,59.76
2022-08-03T01:38:29.486Z,59.86
2022-08-03T01:40:58.029Z,60.50
2022-08-03T01:44:28.093Z,60.35
2022-08-03T01:46:20.679Z,60.26
2022-08-03T01:48:49.419Z,60.16
2022-08-03T01:51:20.177Z,60.28
2022-08-03T01:53:49.303Z,60.11
2022-08-03T01:56:17.987Z,60.14
2022-08-03T01:58:48.735Z,59.78
2022-08-03T02:01:17.274Z,59.90
2022-08-03T02:03:59.867Z,59.38
2022-08-03T02:07:02.625Z,59.66
2022-08-03T02:09:22.895Z,59.35
2022-08-03T02:11:51.995Z,59.03
2022-08-03T02:14:21.830Z,58.71
2022-08-03T02:16:49.713Z,58.18
2022-08-03T02:19:18.431Z,58.04
2022-08-03T02:21:56.335Z,57.71
2022-08-03T02:24:27.976Z,57.61
2022-08-03T02:26:57.004Z,57.01
2022-08-03T02:29:39.315Z,57.04
2022-08-03T02:32:13.131Z,56.58
2022-08-03T02:34:46.419Z,56.13
2022-08-03T02:37:15.069Z,56.06
2022-08-03T02:39:44.115Z,55.58
2022-08-03T02:42:14.666Z,55.00
2022-08-03T02:44:48.575Z,54.24
2022-08-03T02:47:16.133Z,53.80
2022-08-03T02:49:50.724Z,51.44
2022-08-03T02:52:26.787Z,45.96
2022-08-03T02:55:05.339Z,42.08
2022-08-03T02:57:39.400Z,39.16
2022-08-03T03:00:08.818Z,37.46
2022-08-03T03:02:40.761Z,37.04
2022-08-03T03:05:53.626Z,35.90
2022-08-03T03:08:00.014Z,35.63
2022-08-03T03:10:28.821Z,33.56
2022-08-03T03:12:57.726Z,33.21
2022-08-03T03:15:26.683Z,34.62
2022-08-03T03:17:55.049Z,37.08
2022-08-03T03:20:30.036Z,36.11
2022-08-03T03:23:01.691Z,31.79
2022-08-03T03:25:31.972Z,30.30
2022-08-03T03:28:00.763Z,30.69
2022-08-03T03:30:30.033Z,31.33
2022-08-03T03:33:03.058Z,30.66
2022-08-03T03:35:31.183Z,30.84
2022-08-03T03:38:09.699Z,30.74
2022-08-03T03:40:37.615Z,29.70
2022-08-03T03:43:09.786Z,28.83
2022-08-03T03:45:37.992Z,28.52
2022-08-03T03:48:05.981Z,28.94
2022-08-03T03:50:35.196Z,29.35
2022-08-03T03:53:02.905Z,30.31
2022-08-03T03:55:30.598Z,30.71
2022-08-03T03:57:57.683Z,30.78
2022-08-03T04:00:24.874Z,29.33
2022-08-03T04:02:51.823Z,30.73
2022-08-03T04:05:37.821Z,31.25
2022-08-03T04:08:29.387Z,32.73
2022-08-03T04:11:11.968Z,34.48
2022-08-03T04:13:44.200Z,35.83
2022-08-03T04:16:15.116Z,36.27
2022-08-03T04:18:44.981Z,37.14
2022-08-03T04:21:14.410Z,37.82
2022-08-03T04:23:44.759Z,38.61
2022-08-03T04:26:15.366Z,39.27
2022-08-03T04:28:46.160Z,39.61
2022-08-03T04:31:15.581Z,39.76
2022-08-03T04:33:43.945Z,40.13
2022-08-03T04:36:16.660Z,40.63
2022-08-03T04:39:07.806Z,40.84
2022-08-03T04:42:02.189Z,40.99
2022-08-03T04:44:28.501Z,41.28
2022-08-03T04:46:58.171Z,41.05
2022-08-03T04:49:25.534Z,41.04
2022-08-03T04:51:53.270Z,41.54
2022-08-03T04:54:20.562Z,41.25
2022-08-03T04:56:47.703Z,40.89
2022-08-03T04:59:14.768Z,41.36
2022-08-03T05:01:44.650Z,41.26
2022-08-03T05:04:11.747Z,40.91
2022-08-03T05:06:47.847Z,41.04
2022-08-03T05:09:16.058Z,40.97
2022-08-03T05:12:03.024Z,40.94
2022-08-03T05:14:30.553Z,41.15
2022-08-03T05:17:00.391Z,41.07
2022-08-03T05:19:27.403Z,40.90
2022-08-03T05:21:54.619Z,40.79
2022-08-03T05:24:21.509Z,40.61
2022-08-03T05:26:48.379Z,40.51
2022-08-03T05:29:15.497Z,40.51
2022-08-03T05:31:42.488Z,40.31
2022-08-03T05:34:09.340Z,39.43
2022-08-03T05:36:36.461Z,39.33
2022-08-03T05:39:03.422Z,40.14
2022-08-03T05:41:37.121Z,39.77
2022-08-03T05:44:05.298Z,39.17
2022-08-03T05:46:32.308Z,39.02
2022-08-03T05:48:59.437Z,38.87
2022-08-03T05:51:26.696Z,38.28
2022-08-03T05:53:53.811Z,38.30
2022-08-03T05:56:25.265Z,38.31
2022-08-03T05:58:53.559Z,38.44
2022-08-03T06:01:24.593Z,39.07
2022-08-03T06:03:52.933Z,38.61
2022-08-03T06:06:20.028Z,39.05
2022-08-03T06:08:48.874Z,38.56
2022-08-03T06:11:16.675Z,38.14
2022-08-03T06:13:44.250Z,37.98
2022-08-03T06:16:12.144Z,37.63
2022-08-03T06:18:44.194Z,37.74
2022-08-03T06:21:15.150Z,37.74
2022-08-03T06:23:53.962Z,37.92
2022-08-03T06:26:25.819Z,37.49
2022-08-03T06:28:55.429Z,37.23
2022-08-03T06:31:33.090Z,36.77
2022-08-03T06:34:33.441Z,38.11
2022-08-03T06:37:01.291Z,38.36
2022-08-03T06:39:30.415Z,38.28
2022-08-03T06:42:02.511Z,38.19
2022-08-03T06:44:29.685Z,37.92
2022-08-03T06:46:57.027Z,37.88
2022-08-03T06:49:24.128Z,37.38
2022-08-03T06:52:03.277Z,38.24
2022-08-03T06:54:35.680Z,37.96
2022-08-03T06:57:08.586Z,38.03
2022-08-03T07:00:06.621Z,37.20
2022-08-03T07:02:33.613Z,36.66
2022-08-03T07:05:01.310Z,37.18
2022-08-03T07:07:30.156Z,37.12
2022-08-03T07:09:58.270Z,36.56
2022-08-03T07:12:26.882Z,36.21
2022-08-03T07:14:58.190Z,34.19
2022-08-03T07:17:29.064Z,35.23
2022-08-03T07:19:56.746Z,35.77
2022-08-03T07:22:23.938Z,35.80
2022-08-03T07:24:50.866Z,35.48
2022-08-03T07:27:18.070Z,35.17
2022-08-03T07:29:44.947Z,34.29
2022-08-03T07:32:12.181Z,34.72
2022-08-03T07:34:39.059Z,34.29
2022-08-03T07:37:06.176Z,34.09
2022-08-03T07:39:33.499Z,34.12
2022-08-03T07:42:00.731Z,33.96
2022-08-03T07:44:27.541Z,33.16
2022-08-03T07:46:54.800Z,33.23
2022-08-03T07:49:23.797Z,33.21
2022-08-03T07:52:11.098Z,33.34
2022-08-03T07:54:38.381Z,33.36
2022-08-03T07:57:05.766Z,32.90
2022-08-03T07:59:56.665Z,32.63
2022-08-03T08:02:22.355Z,33.07
2022-08-03T08:04:49.251Z,33.25
2022-08-03T08:07:16.226Z,33.58
2022-08-03T08:09:45.351Z,34.19
2022-08-03T08:12:15.570Z,34.34
2022-08-03T08:14:45.877Z,34.23
2022-08-03T08:17:14.043Z,33.62
2022-08-03T08:19:42.773Z,33.11
2022-08-03T08:22:25.845Z,31.95
2022-08-03T08:24:59.363Z,31.95
2022-08-03T08:27:27.773Z,31.54
2022-08-03T08:29:58.847Z,31.28
2022-08-03T08:32:29.989Z,30.36
2022-08-03T08:34:57.855Z,30.26
2022-08-03T08:37:24.873Z,30.06
2022-08-03T08:39:52.005Z,29.64
2022-08-03T08:42:19.004Z,29.37
2022-08-03T08:44:45.985Z,29.93
2022-08-03T08:47:15.270Z,29.72
2022-08-03T08:49:53.556Z,28.92
2022-08-03T08:52:32.025Z,28.99
2022-08-03T08:55:03.930Z,29.10
2022-08-03T08:57:43.320Z,29.11
2022-08-03T09:00:14.209Z,28.55
2022-08-03T09:02:43.137Z,28.26
2022-08-03T09:05:31.461Z,28.32
2022-08-03T09:08:07.966Z,27.94
2022-08-03T09:10:35.280Z,27.99
2022-08-03T09:13:02.494Z,28.21
2022-08-03T09:15:32.283Z,28.13
2022-08-03T09:18:01.015Z,28.03
2022-08-03T09:20:31.124Z,28.21
2022-08-03T09:23:19.089Z,28.21
2022-08-03T09:25:59.858Z,27.45
2022-08-03T09:29:00.830Z,28.08
2022-08-03T09:31:45.058Z,27.79
2022-08-03T09:34:16.880Z,27.65
2022-08-03T09:36:48.678Z,27.33
2022-08-03T09:39:40.705Z,27.15
2022-08-03T09:42:27.750Z,27.55
2022-08-03T09:44:54.965Z,27.59
2022-08-03T09:47:30.349Z,28.32
2022-08-03T09:50:02.476Z,28.17
2022-08-03T09:52:49.469Z,28.46
2022-08-03T09:56:05.191Z,28.20
2022-08-03T09:58:11.036Z,27.94
2022-08-03T10:00:56.454Z,28.17
2022-08-03T10:03:26.295Z,28.11
2022-08-03T10:05:59.028Z,27.82
2022-08-03T10:08:27.010Z,27.21
2022-08-03T10:10:54.827Z,26.80
2022-08-03T10:13:23.256Z,27.38
2022-08-03T10:16:23.783Z,27.14
2022-08-03T10:18:38.534Z,27.00
2022-08-03T10:21:10.635Z,27.38
2022-08-03T10:23:41.093Z,28.10
2022-08-03T10:26:12.204Z,28.20
2022-08-03T10:28:45.352Z,28.35
2022-08-03T10:31:14.133Z,28.95
2022-08-03T10:33:52.898Z,29.60
2022-08-03T10:36:24.698Z,29.29
2022-08-03T10:38:53.921Z,29.19
2022-08-03T10:41:23.440Z,29.20
2022-08-03T10:43:57.131Z,29.42
2022-08-03T10:46:26.355Z,29.33
2022-08-03T10:48:53.916Z,29.41
2022-08-03T10:51:21.908Z,28.92
2022-08-03T10:53:55.522Z,28.98
2022-08-03T10:56:54.675Z,29.13
2022-08-03T10:59:51.047Z,29.74
2022-08-03T11:02:18.217Z,29.45
2022-08-03T11:04:45.329Z,29.86
2022-08-03T11:07:19.894Z,30.24
2022-08-03T11:09:53.502Z,30.84
2022-08-03T11:12:31.297Z,30.77
2022-08-03T11:15:08.588Z,30.49
2022-08-03T11:17:51.444Z,30.05
2022-08-03T11:20:46.529Z,29.31
2022-08-03T11:23:14.763Z,28.71
2022-08-03T11:26:09.895Z,28.74
2022-08-03T11:28:39.166Z,28.12
2022-08-03T11:31:48.761Z,28.34
2022-08-03T11:34:14.392Z,27.39
2022-08-03T11:37:20.331Z,27.31
2022-08-03T11:39:49.418Z,27.79
2022-08-03T11:42:26.327Z,28.48
2022-08-03T11:44:55.923Z,28.64
2022-08-03T11:47:24.441Z,28.93
2022-08-03T11:49:53.950Z,29.50
2022-08-03T11:52:26.817Z,29.56
2022-08-03T11:54:56.585Z,30.15
2022-08-03T11:59:11.262Z,30.58
2022-08-03T12:00:27.514Z,30.18
2022-08-03T12:02:56.247Z,29.93
2022-08-03T12:05:33.890Z,30.12
2022-08-03T12:08:04.957Z,30.18
2022-08-03T12:10:34.609Z,30.29
2022-08-03T12:13:06.063Z,30.28
2022-08-03T12:15:59.352Z,30.29
2022-08-03T12:18:26.934Z,30.31
2022-08-03T12:21:05.165Z,30.11
2022-08-03T12:23:36.052Z,29.67
2022-08-03T12:26:10.112Z,29.13
2022-08-03T12:28:49.790Z,29.57
2022-08-03T12:31:17.227Z,28.98
2022-08-03T12:34:06.554Z,28.90
2022-08-03T12:36:35.838Z,28.56
2022-08-03T12:39:05.103Z,29.18
2022-08-03T12:41:37.266Z,28.80
2022-08-03T12:44:08.970Z,28.80
2022-08-03T12:46:46.965Z,28.68
2022-08-03T12:49:17.167Z,28.08
2022-08-03T12:51:44.238Z,27.91
2022-08-03T12:54:18.414Z,28.73
2022-08-03T12:57:16.057Z,28.53
2022-08-03T12:59:52.904Z,28.21
2022-08-03T13:02:24.186Z,27.70
2022-08-03T13:04:54.707Z,27.86
2022-08-03T13:07:23.016Z,27.70
2022-08-03T13:09:53.281Z,27.98
2022-08-03T13:12:22.827Z,28.07
2022-08-03T13:14:56.597Z,28.46
2022-08-03T13:17:23.800Z,27.80
2022-08-03T13:19:51.448Z,27.53
2022-08-03T13:22:22.159Z,27.80
2022-08-03T13:24:51.656Z,27.68
2022-08-03T13:28:02.688Z,26.91
2022-08-03T13:30:08.792Z,27.67
2022-08-03T13:32:36.209Z,27.46
2022-08-03T13:35:03.843Z,27.68
2022-08-03T13:37:32.550Z,28.20
2022-08-03T13:40:02.699Z,28.46
2022-08-03T13:42:35.978Z,28.63
2022-08-03T13:45:04.751Z,28.94
2022-08-03T13:47:32.349Z,30.08
2022-08-03T13:50:02.476Z,30.14
2022-08-03T13:52:34.031Z,29.53
2022-08-03T13:55:05.407Z,30.32
2022-08-03T13:58:03.079Z,30.44
2022-08-03T14:00:27.574Z,30.77
2022-08-03T14:03:03.994Z,30.63
2022-08-03T14:05:33.693Z,29.87
2022-08-03T14:08:04.808Z,30.45
2022-08-03T14:10:43.884Z,29.91
2022-08-03T14:13:16.721Z,30.03
2022-08-03T14:15:50.382Z,29.75
2022-08-03T14:18:28.855Z,29.51
2022-08-03T14:21:06.736Z,29.47
2022-08-03T14:23:35.875Z,29.39
2022-08-03T14:26:02.820Z,29.73
2022-08-03T14:28:29.758Z,29.25
2022-08-03T14:30:56.732Z,29.66
2022-08-03T14:33:24.203Z,29.88
2022-08-03T14:35:52.291Z,29.58
2022-08-03T14:38:19.847Z,29.62
2022-08-03T14:40:47.470Z,28.95
2022-08-03T14:43:17.958Z,29.19
2022-08-03T14:45:45.068Z,29.14
2022-08-03T14:50:28.836Z,29.07
2022-08-03T14:50:59.931Z,29.14
2022-08-03T14:53:28.798Z,28.62
2022-08-03T14:55:55.906Z,28.82
2022-08-03T14:58:25.437Z,28.82
2022-08-03T15:00:55.418Z,29.49
2022-08-03T15:03:25.016Z,29.29
2022-08-03T15:05:57.040Z,29.90
2022-08-03T15:08:25.858Z,30.35
2022-08-03T15:10:54.470Z,30.98
2022-08-03T15:13:22.299Z,31.17
2022-08-03T15:15:51.830Z,31.52
2022-08-03T15:18:20.124Z,31.94
2022-08-03T15:20:49.032Z,31.91
2022-08-03T15:23:17.753Z,32.19
2022-08-03T15:26:28.905Z,32.08
2022-08-03T15:28:33.439Z,32.38
2022-08-03T15:31:00.915Z,32.36
2022-08-03T15:33:28.506Z,32.82
2022-08-03T15:35:56.821Z,33.08
2022-08-03T15:38:25.981Z,32.72
2022-08-03T15:40:57.151Z,32.85
2022-08-03T15:43:24.928Z,32.90
2022-08-03T15:46:12.752Z,33.42
2022-08-03T15:48:40.021Z,33.26
2022-08-03T15:51:08.008Z,33.55
2022-08-03T15:53:35.047Z,33.22
2022-08-03T15:56:09.705Z,33.35
2022-08-03T15:59:03.318Z,33.57
2022-08-03T16:01:27.211Z,32.89
2022-08-03T16:03:54.102Z,33.05
2022-08-03T16:06:29.761Z,33.14
2022-08-03T16:09:24.053Z,33.11
2022-08-03T16:11:55.634Z,33.33
2022-08-03T16:14:34.839Z,33.17
2022-08-03T16:17:07.355Z,33.04
2022-08-03T16:19:34.469Z,33.68
2022-08-03T16:22:03.171Z,33.87
2022-08-03T16:24:30.510Z,34.33
2022-08-03T16:26:57.816Z,34.82
2022-08-03T16:29:27.516Z,34.68
2022-08-03T16:31:54.445Z,35.53
2022-08-03T16:34:21.458Z,35.80
2022-08-03T16:36:48.384Z,36.19
2022-08-03T16:39:15.433Z,36.23
2022-08-03T16:41:55.023Z,36.42
2022-08-03T16:44:29.719Z,37.10
2022-08-03T16:46:57.585Z,36.95
2022-08-03T16:49:54.994Z,37.19
2022-08-03T16:52:12.973Z,37.22
2022-08-03T16:54:40.814Z,37.49
2022-08-03T16:57:08.609Z,37.80
2022-08-03T16:59:37.129Z,38.59
2022-08-03T17:02:09.872Z,38.87
2022-08-03T17:04:40.223Z,38.59
2022-08-03T17:07:08.810Z,39.09
2022-08-03T17:09:38.465Z,38.73
2022-08-03T17:12:06.094Z,38.55
2022-08-03T17:14:34.404Z,38.81
2022-08-03T17:17:03.697Z,38.88
2022-08-03T17:19:32.550Z,38.86
2022-08-03T17:22:09.022Z,38.96
2022-08-03T17:24:41.085Z,38.60
2022-08-03T17:28:50.674Z,38.67
2022-08-03T17:30:07.793Z,38.73
2022-08-03T17:32:42.350Z,38.55
2022-08-03T17:35:10.494Z,39.07
2022-08-03T17:37:57.495Z,39.22
2022-08-03T17:40:25.000Z,39.33
2022-08-03T17:42:52.983Z,39.40
2022-08-03T17:45:20.624Z,39.57
2022-08-03T17:47:57.500Z,39.73
2022-08-03T17:50:37.377Z,39.76
2022-08-03T17:53:15.577Z,40.08
2022-08-03T17:56:45.019Z,40.76
2022-08-03T17:59:08.994Z,40.98
2022-08-03T18:02:25.188Z,42.09
2022-08-03T18:05:16.219Z,42.52
2022-08-03T18:08:03.584Z,42.66
2022-08-03T18:10:36.161Z,42.45
2022-08-03T18:13:25.217Z,42.81
2022-08-03T18:16:02.827Z,42.76
2022-08-03T18:18:54.876Z,42.36
2022-08-03T18:21:25.571Z,42.55
2022-08-03T18:23:54.866Z,42.56
2022-08-03T18:26:26.501Z,42.48
2022-08-03T18:28:54.668Z,43.24
2022-08-03T18:31:33.143Z,42.71
2022-08-03T18:34:18.078Z,43.20
2022-08-03T18:37:07.239Z,43.16
2022-08-03T18:39:49.240Z,42.99
2022-08-03T18:42:19.950Z,42.36
2022-08-03T18:44:55.904Z,42.68
2022-08-03T18:48:02.414Z,42.51
2022-08-03T18:50:35.852Z,42.16
2022-08-03T18:53:19.914Z,42.01
2022-08-03T18:56:02.407Z,41.11
2022-08-03T18:58:45.103Z,41.38
2022-08-03T19:01:58.435Z,41.29
2022-08-03T19:04:20.846Z,41.16
2022-08-03T19:06:57.802Z,41.31
2022-08-03T19:09:41.564Z,41.33
2022-08-03T19:12:28.140Z,41.02
2022-08-03T19:15:10.525Z,40.89
2022-08-03T19:17:53.494Z,41.50
2022-08-03T19:20:24.976Z,41.70
2022-08-03T19:22:56.397Z,41.52
2022-08-03T19:25:34.707Z,41.90
2022-08-03T19:28:06.252Z,42.28
2022-08-03T19:30:38.783Z,41.88
2022-08-03T19:33:12.468Z,42.36
2022-08-03T19:35:55.655Z,42.23
2022-08-03T19:38:27.444Z,42.56
2022-08-03T19:40:59.692Z,42.46
2022-08-03T19:44:07.031Z,43.02
2022-08-03T19:46:43.622Z,43.35
2022-08-03T19:49:16.519Z,43.31
2022-08-03T19:54:45.892Z,43.96
2022-08-03T19:57:24.603Z,44.14
2022-08-03T19:59:53.784Z,44.48
2022-08-03T20:02:26.540Z,44.23
2022-08-03T20:04:59.776Z,44.55
2022-08-03T20:07:30.566Z,44.99
2022-08-03T20:09:59.633Z,44.70
2022-08-03T20:12:39.153Z,44.97
2022-08-03T20:15:09.198Z,45.27
2022-08-03T20:17:54.648Z,45.15
2022-08-03T20:20:30.048Z,46.10
2022-08-03T20:22:59.871Z,45.98
2022-08-03T20:25:38.264Z,45.77
2022-08-03T20:28:14.259Z,45.99
2022-08-03T20:30:44.323Z,45.89
2022-08-03T20:33:18.944Z,46.21
2022-08-03T20:35:49.325Z,46.33
2022-08-03T20:38:18.826Z,46.89
2022-08-03T20:40:47.798Z,47.67
2022-08-03T20:43:16.565Z,47.15
2022-08-03T20:45:59.578Z,47.40
2022-08-03T20:48:37.637Z,48.13
2022-08-03T20:51:19.673Z,48.56
2022-08-03T20:53:59.549Z,48.64
2022-08-03T20:56:32.423Z,48.23
2022-08-03T20:59:04.830Z,49.84
2022-08-03T21:01:35.981Z,49.81
2022-08-03T21:04:09.555Z,49.20
2022-08-03T21:06:53.313Z,48.60
2022-08-03T21:09:39.792Z,50.20
2022-08-03T21:12:12.045Z,51.22
2022-08-03T21:13:03.089Z,43.68
2022-08-03T21:14:59.006Z,52.12
2022-08-03T21:17:40.606Z,52.73
2022-08-03T21:20:10.875Z,52.84
2022-08-03T21:22:42.668Z,52.84
2022-08-03T21:25:11.087Z,52.38
2022-08-03T21:27:38.202Z,51.37
2022-08-03T21:30:09.020Z,50.68
2022-08-03T21:32:40.318Z,50.86
2022-08-03T21:35:11.159Z,50.75
2022-08-03T21:37:42.430Z,50.98
2022-08-03T21:40:12.214Z,51.49
2022-08-03T21:42:40.361Z,51.46
2022-08-03T21:45:15.168Z,51.38
2022-08-03T21:47:44.402Z,52.50
2022-08-03T21:50:13.442Z,54.11
2022-08-03T21:52:44.189Z,52.96
2022-08-03T21:55:18.601Z,52.40
2022-08-03T21:57:54.092Z,51.61
2022-08-03T22:00:26.087Z,50.81
2022-08-03T22:02:56.096Z,50.88
2022-08-03T22:05:29.083Z,50.32
2022-08-03T22:08:15.359Z,51.01
2022-08-03T22:10:46.090Z,50.45
2022-08-03T22:13:15.235Z,50.54
2022-08-03T22:15:42.415Z,51.09
2022-08-03T22:18:10.052Z,50.63
2022-08-03T22:20:37.399Z,50.86
2022-08-03T22:23:06.794Z,50.84
2022-08-03T22:25:36.666Z,50.80
2022-08-03T22:28:09.649Z,51.68
2022-08-03T22:30:38.261Z,51.55
2022-08-03T22:33:11.011Z,53.78
2022-08-03T22:35:47.376Z,51.92
2022-08-03T22:38:17.398Z,52.92
2022-08-03T22:40:45.043Z,52.21
2022-08-03T22:43:12.271Z,51.45
2022-08-03T22:46:06.014Z,51.44
2022-08-03T22:48:27.871Z,51.41
2022-08-03T22:50:56.214Z,51.47
2022-08-03T22:53:25.739Z,50.94
2022-08-03T22:55:52.883Z,51.20
2022-08-03T22:58:22.790Z,50.91
2022-08-03T23:01:06.698Z,50.79
2022-08-03T23:03:59.853Z,50.90
2022-08-03T23:06:26.718Z,51.21
2022-08-03T23:08:54.246Z,52.64
2022-08-03T23:11:23.401Z,52.17
2022-08-03T23:13:54.174Z,52.11
2022-08-03T23:16:28.711Z,52.19
2022-08-03T23:18:59.967Z,52.42
2022-08-03T23:22:00.293Z,52.72
2022-08-03T23:24:34.673Z,54.08
2022-08-03T23:27:06.873Z,53.23
2022-08-03T23:29:38.608Z,52.47
2022-08-03T23:32:06.576Z,52.63
2022-08-03T23:34:52.718Z,52.45
2022-08-03T23:37:20.735Z,53.18
2022-08-03T23:39:48.746Z,52.92
2022-08-03T23:42:19.376Z,53.33
2022-08-03T23:44:46.847Z,53.57
2022-08-03T23:47:14.185Z,53.59
2022-08-03T23:49:41.299Z,55.44
2022-08-03T23:52:08.271Z,54.51
2022-08-03T23:55:12.670Z,54.39
2022-08-03T23:58:00.634Z,54.85
